Time;durP1;ratioP1;P1;durP2;ratioP2;P2;SDS_P1;SDS_P2;PMS_P1;PMS_P2;Temp;Humidity;BMP_temperature;BMP_pressure;BME280_temperature;BME280_humidity;BME280_pressure;Samples;Min_cycle;Max_cycle;Signal;HPM_P1;HPM_P2
2024/04/15 00:01:52;;;;;;;11.88;3.10;;;10.80;99.90;;;;;;5342154;26;20017;-50
2024/04/15 00:04:17;;;;;;;11.25;3.10;;;10.80;99.90;;;;;;5354796;26;20021;-50
2024/04/15 00:06:43;;;;;;;9.43;2.38;;;10.80;99.90;;;;;;5359534;26;20008;-49
2024/04/15 00:09:08;;;;;;;7.93;2.67;;;10.80;99.90;;;;;;5335324;26;20001;-50
2024/04/15 00:11:34;;;;;;;10.50;2.50;;;10.70;99.90;;;;;;5337102;26;20073;-52
2024/04/15 00:14:00;;;;;;;10.35;2.70;;;10.80;99.90;;;;;;5329829;26;20008;-52
2024/04/15 00:16:25;;;;;;;9.98;2.20;;;10.70;99.90;;;;;;5347126;26;20489;-56
2024/04/15 00:18:51;;;;;;;6.38;2.28;;;10.70;99.90;;;;;;5351596;26;20735;-52
2024/04/15 00:21:16;;;;;;;8.85;2.08;;;10.70;99.90;;;;;;5367097;26;20470;-50
2024/04/15 00:23:42;;;;;;;7.55;2.00;;;10.70;99.90;;;;;;5348821;26;20003;-54
2024/04/15 00:26:07;;;;;;;11.35;3.92;;;10.60;99.90;;;;;;5338720;26;20016;-53
2024/04/15 00:28:33;;;;;;;10.88;2.00;;;10.60;99.90;;;;;;5331644;26;20014;-53
2024/04/15 00:30:58;;;;;;;12.88;3.83;;;10.60;99.90;;;;;;5344111;26;20000;-52
2024/04/15 00:33:24;;;;;;;8.63;2.80;;;10.60;99.90;;;;;;5357167;26;20082;-46
2024/04/15 00:35:49;;;;;;;9.23;2.30;;;10.50;99.90;;;;;;5336811;26;20025;-57
2024/04/15 00:38:16;;;;;;;8.50;3.05;;;10.60;99.90;;;;;;5340058;26;20005;-56
2024/04/15 00:40:41;;;;;;;9.90;2.42;;;10.50;99.90;;;;;;5337228;26;20004;-55
2024/04/15 00:43:10;;;;;;;8.88;2.88;;;10.50;99.90;;;;;;5335657;26;20028;-50
2024/04/15 00:45:36;;;;;;;10.35;2.97;;;10.40;99.90;;;;;;5335212;26;20005;-54
2024/04/15 00:48:07;;;;;;;9.88;3.25;;;10.40;99.90;;;;;;5336059;26;20001;-56
2024/04/15 00:50:36;;;;;;;10.38;3.00;;;10.40;99.90;;;;;;5339126;26;20466;-46
2024/04/15 00:53:02;;;;;;;8.85;3.28;;;10.30;99.90;;;;;;5338696;26;20012;-54
2024/04/15 00:55:30;;;;;;;14.13;3.03;;;10.30;99.90;;;;;;5342628;26;19996;-53
2024/04/15 00:57:55;;;;;;;12.38;2.65;;;10.30;99.90;;;;;;5359321;26;20005;-50
2024/04/15 01:00:22;;;;;;;8.55;3.03;;;10.20;99.90;;;;;;5334603;26;20070;-52
2024/04/15 01:02:48;;;;;;;12.68;3.20;;;10.20;99.90;;;;;;5322138;26;20004;-55
2024/04/15 01:05:14;;;;;;;9.85;3.00;;;10.20;99.90;;;;;;5331519;26;20448;-56
2024/04/15 01:07:39;;;;;;;7.88;2.80;;;10.10;99.90;;;;;;5337189;26;20008;-56
2024/04/15 01:10:06;;;;;;;10.48;3.70;;;10.00;99.90;;;;;;5359302;26;20487;-56
2024/04/15 01:12:32;;;;;;;13.63;4.32;;;10.00;99.90;;;;;;5436535;21;20000;-56
2024/04/15 01:14:57;;;;;;;8.65;2.80;;;10.00;99.90;;;;;;5367938;26;20374;-54
2024/04/15 01:17:23;;;;;;;7.97;2.53;;;10.00;99.90;;;;;;5369298;26;20001;-55
2024/04/15 01:19:49;;;;;;;6.00;2.13;;;10.00;99.90;;;;;;5369386;26;19996;-52
2024/04/15 01:22:23;;;;;;;8.43;2.30;;;9.90;99.90;;;;;;5365390;26;20007;-51
2024/04/15 01:24:50;;;;;;;8.10;1.75;;;9.90;99.90;;;;;;5360072;26;20028;-54
2024/04/15 01:27:19;;;;;;;10.32;1.80;;;9.90;99.90;;;;;;5359718;26;19997;-54
2024/04/15 01:29:44;;;;;;;5.40;1.98;;;9.90;99.90;;;;;;5360215;26;20015;-53
2024/04/15 01:32:10;;;;;;;8.80;1.38;;;9.80;99.90;;;;;;5370394;26;20443;-49
2024/04/15 01:34:35;;;;;;;7.65;1.75;;;9.80;99.90;;;;;;5362502;26;20470;-55
2024/04/15 01:37:01;;;;;;;5.28;1.15;;;9.80;99.90;;;;;;5367003;26;19993;-52
2024/04/15 01:39:26;;;;;;;10.73;1.55;;;9.80;99.90;;;;;;5371297;26;19996;-55
2024/04/15 01:41:52;;;;;;;4.32;1.30;;;9.70;99.90;;;;;;5361921;26;20402;-56
2024/04/15 01:44:17;;;;;;;8.30;1.00;;;9.70;99.90;;;;;;5368029;26;20362;-50
2024/04/15 01:46:43;;;;;;;2.55;0.90;;;9.70;99.90;;;;;;5364397;26;20805;-48
2024/04/15 01:49:08;;;;;;;5.20;1.20;;;9.70;99.90;;;;;;5369985;26;20038;-53
2024/04/15 01:51:34;;;;;;;5.05;1.60;;;9.70;99.90;;;;;;5364135;26;20004;-51
2024/04/15 01:53:59;;;;;;;8.38;1.15;;;9.70;99.90;;;;;;5350927;26;20015;-55
2024/04/15 01:56:25;;;;;;;5.97;0.80;;;9.60;99.90;;;;;;5367829;26;20004;-55
2024/04/15 01:58:50;;;;;;;9.52;0.80;;;9.70;99.90;;;;;;5370639;26;19992;-55
2024/04/15 02:01:16;;;;;;;7.03;1.17;;;9.60;99.90;;;;;;5370248;26;20741;-55
2024/04/15 02:03:43;;;;;;;6.05;0.68;;;9.60;99.90;;;;;;5362896;26;20350;-53
2024/04/15 02:06:09;;;;;;;4.50;0.98;;;9.60;99.90;;;;;;5368613;26;20062;-56
2024/04/15 02:08:35;;;;;;;8.93;2.45;;;9.60;99.90;;;;;;5371137;26;20503;-55
2024/04/15 02:11:01;;;;;;;9.25;2.03;;;9.60;99.90;;;;;;5368521;26;19996;-56
2024/04/15 02:13:27;;;;;;;4.32;0.55;;;9.60;99.90;;;;;;5362744;26;20828;-53
2024/04/15 02:15:52;;;;;;;3.90;0.68;;;9.50;99.90;;;;;;5368393;26;20013;-47
2024/04/15 02:18:18;;;;;;;7.10;0.80;;;9.50;99.90;;;;;;5370475;26;20077;-51
2024/04/15 02:20:43;;;;;;;6.00;0.57;;;9.50;99.90;;;;;;5370103;26;20000;-52
2024/04/15 02:23:09;;;;;;;8.85;0.70;;;9.40;99.90;;;;;;5358063;26;20001;-51
2024/04/15 02:25:35;;;;;;;3.70;0.50;;;9.40;99.90;;;;;;5369963;26;20399;-56
2024/04/15 02:28:00;;;;;;;8.13;0.77;;;9.40;99.90;;;;;;5358393;26;20451;-56
2024/04/15 02:30:26;;;;;;;8.90;0.68;;;9.30;99.90;;;;;;5367956;26;20008;-52
2024/04/15 02:32:51;;;;;;;3.67;0.50;;;9.30;99.90;;;;;;5368222;26;20749;-56
2024/04/15 02:35:17;;;;;;;5.18;0.60;;;9.30;99.90;;;;;;5369645;26;20008;-50
2024/04/15 02:37:42;;;;;;;3.95;0.50;;;9.20;99.90;;;;;;5328832;26;19996;-50
2024/04/15 02:40:08;;;;;;;6.63;0.50;;;9.20;99.90;;;;;;5370192;26;20050;-50
2024/04/15 02:42:34;;;;;;;6.30;0.50;;;9.20;99.90;;;;;;5359873;26;20014;-49
2024/04/15 02:45:00;;;;;;;5.15;0.60;;;9.20;99.90;;;;;;5349320;26;20330;-53
2024/04/15 02:47:25;;;;;;;5.50;1.02;;;9.20;99.90;;;;;;5355916;26;19997;-54
2024/04/15 02:49:51;;;;;;;8.35;0.40;;;9.20;99.90;;;;;;5363015;26;20366;-56
2024/04/15 02:52:16;;;;;;;11.10;0.60;;;9.20;99.90;;;;;;5367199;26;20565;-48
2024/04/15 02:54:42;;;;;;;5.90;0.50;;;9.10;99.90;;;;;;5363946;26;20004;-53
2024/04/15 02:57:08;;;;;;;10.73;0.60;;;9.10;99.90;;;;;;5369212;26;19996;-55
2024/04/15 02:59:33;;;;;;;7.53;0.40;;;9.00;99.90;;;;;;5366657;26;19996;-52
2024/04/15 03:01:59;;;;;;;6.38;0.47;;;9.00;99.90;;;;;;5367800;26;19992;-52
2024/04/15 03:04:24;;;;;;;6.22;0.43;;;9.00;99.90;;;;;;5372979;26;20000;-50
2024/04/15 03:06:53;;;;;;;6.07;1.45;;;9.00;99.90;;;;;;5365741;26;20015;-50
2024/04/15 03:09:21;;;;;;;10.50;0.68;;;9.00;99.90;;;;;;5365622;26;20346;-49
2024/04/15 03:11:47;;;;;;;9.93;0.55;;;8.90;99.90;;;;;;5364545;26;20080;-51
2024/04/15 03:14:12;;;;;;;7.10;0.45;;;8.90;99.90;;;;;;5372229;26;20004;-51
2024/04/15 03:16:38;;;;;;;8.05;0.70;;;8.90;99.90;;;;;;5372217;26;19992;-53
2024/04/15 03:19:04;;;;;;;4.72;0.68;;;8.90;99.90;;;;;;5370744;26;20002;-52
2024/04/15 03:21:29;;;;;;;5.60;0.40;;;8.80;99.90;;;;;;5368157;26;19997;-55
2024/04/15 03:23:55;;;;;;;6.10;0.40;;;8.80;99.90;;;;;;5372167;26;20069;-53
2024/04/15 03:26:20;;;;;;;5.70;0.30;;;8.80;99.90;;;;;;5371416;26;20078;-53
2024/04/15 03:28:46;;;;;;;19.02;0.50;;;8.90;99.90;;;;;;5362901;26;19992;-50
2024/04/15 03:31:12;;;;;;;6.63;0.32;;;8.90;99.90;;;;;;5366418;26;20007;-56
2024/04/15 03:33:40;;;;;;;6.07;0.40;;;8.90;99.90;;;;;;5371260;26;19996;-50
2024/04/15 03:36:06;;;;;;;9.57;0.88;;;8.80;99.90;;;;;;5371675;26;20029;-49
2024/04/15 03:38:32;;;;;;;6.53;0.82;;;8.80;99.90;;;;;;5372062;26;20046;-55
2024/04/15 03:40:58;;;;;;;5.22;0.47;;;8.80;99.90;;;;;;5363904;26;20024;-53
2024/04/15 03:43:23;;;;;;;8.90;0.43;;;8.80;99.90;;;;;;5364451;26;20008;-56
2024/04/15 03:45:49;;;;;;;6.43;0.50;;;8.80;99.90;;;;;;5357467;26;20012;-51
2024/04/15 03:48:15;;;;;;;7.20;0.85;;;8.70;99.90;;;;;;5372320;26;20000;-49
2024/04/15 03:50:40;;;;;;;7.90;1.50;;;8.70;99.90;;;;;;5339329;26;19996;-49
2024/04/15 03:53:06;;;;;;;5.22;0.35;;;8.80;99.90;;;;;;5364921;26;20130;-55
2024/04/15 03:55:32;;;;;;;8.30;0.45;;;8.70;99.90;;;;;;5365835;26;20366;-55
2024/04/15 03:57:57;;;;;;;8.27;0.50;;;8.70;99.90;;;;;;5361342;26;20496;-55
2024/04/15 04:00:23;;;;;;;6.78;0.40;;;8.70;99.90;;;;;;5366232;26;20012;-57
2024/04/15 04:02:48;;;;;;;10.20;0.75;;;8.70;99.90;;;;;;5365154;26;19999;-49
2024/04/15 04:05:14;;;;;;;4.53;0.65;;;8.70;99.90;;;;;;5371318;26;20015;-55
2024/04/15 04:07:39;;;;;;;5.18;0.38;;;8.70;99.90;;;;;;5366842;26;20011;-48
2024/04/15 04:10:05;;;;;;;10.63;0.50;;;8.60;99.90;;;;;;5369384;26;20037;-52
2024/04/15 04:12:31;;;;;;;9.82;0.30;;;8.60;99.90;;;;;;5369106;26;20007;-54
2024/04/15 04:14:56;;;;;;;9.95;0.57;;;8.50;99.90;;;;;;5371050;26;20524;-56
2024/04/15 04:17:22;;;;;;;12.32;1.17;;;8.40;99.90;;;;;;5363175;26;20552;-56
2024/04/15 04:19:48;;;;;;;8.02;0.50;;;8.40;99.90;;;;;;5370669;26;20440;-56
2024/04/15 04:22:14;;;;;;;7.57;0.60;;;8.40;99.90;;;;;;5371694;26;20000;-60
2024/04/15 04:24:40;;;;;;;15.40;0.63;;;8.40;99.90;;;;;;5371190;26;20471;-42
2024/04/15 04:27:06;;;;;;;7.80;0.52;;;8.40;99.90;;;;;;5363790;26;20000;-46
2024/04/15 04:29:35;;;;;;;6.32;0.70;;;8.40;99.90;;;;;;5369574;26;20064;-45
2024/04/15 04:32:01;;;;;;;8.55;0.95;;;8.40;99.90;;;;;;5371258;26;20081;-45
2024/04/15 04:34:27;;;;;;;8.32;0.80;;;8.50;99.90;;;;;;5371145;26;20046;-46
2024/04/15 04:36:52;;;;;;;5.15;0.60;;;8.50;99.90;;;;;;5368830;26;19996;-46
2024/04/15 04:39:18;;;;;;;3.20;0.50;;;8.50;99.90;;;;;;5371709;26;20328;-45
2024/04/15 04:41:43;;;;;;;5.47;0.40;;;8.40;99.90;;;;;;5361399;26;20015;-45
2024/04/15 04:44:09;;;;;;;12.05;0.70;;;8.40;99.90;;;;;;5371748;26;19996;-44
2024/04/15 04:46:34;;;;;;;5.38;0.63;;;8.40;99.90;;;;;;5369863;26;20004;-47
2024/04/15 04:49:00;;;;;;;11.43;0.57;;;8.30;99.90;;;;;;5371357;26;20045;-43
2024/04/15 04:51:26;;;;;;;10.07;1.15;;;8.40;99.90;;;;;;5371513;26;20271;-51
2024/04/15 04:53:51;;;;;;;6.00;1.50;;;8.40;99.90;;;;;;5369496;26;19993;-46
2024/04/15 04:56:17;;;;;;;12.32;0.93;;;8.70;99.90;;;;;;5362591;26;20025;-51
2024/04/15 04:58:43;;;;;;;10.65;1.23;;;8.80;99.90;;;;;;5367535;26;20064;-48
2024/04/15 05:01:15;;;;;;;6.82;0.73;;;8.90;99.90;;;;;;5369741;26;20011;-48
2024/04/15 05:03:51;;;;;;;6.25;0.60;;;8.80;99.90;;;;;;5368136;26;20015;-46
2024/04/15 05:06:17;;;;;;;12.40;0.60;;;8.70;99.90;;;;;;5368456;26;20004;-51
2024/04/15 05:08:44;;;;;;;8.00;0.80;;;8.70;99.90;;;;;;5370290;26;20052;-48
2024/04/15 05:11:10;;;;;;;8.00;0.77;;;8.60;99.90;;;;;;5370646;26;20461;-49
2024/04/15 05:13:36;;;;;;;11.70;1.05;;;8.70;99.90;;;;;;5367572;26;20000;-45
2024/04/15 05:16:05;;;;;;;4.45;0.30;;;8.70;99.90;;;;;;5364084;26;20032;-49
2024/04/15 05:18:31;;;;;;;5.35;0.50;;;8.70;99.90;;;;;;5356786;26;20004;-49
2024/04/15 05:20:59;;;;;;;7.40;0.50;;;8.70;99.90;;;;;;5367033;26;20227;-47
2024/04/15 05:23:25;;;;;;;10.63;0.50;;;8.70;99.90;;;;;;5350033;26;20034;-46
2024/04/15 05:25:51;;;;;;;7.05;1.02;;;8.70;99.90;;;;;;5368859;26;20048;-48
2024/04/15 05:28:16;;;;;;;8.98;0.70;;;8.60;99.90;;;;;;5371557;26;20508;-45
2024/04/15 05:30:42;;;;;;;6.43;0.50;;;8.70;99.90;;;;;;5361796;26;20006;-47
2024/04/15 05:33:07;;;;;;;8.05;0.60;;;8.70;99.90;;;;;;5371045;26;20011;-47
2024/04/15 05:35:33;;;;;;;15.70;0.70;;;8.70;99.90;;;;;;5368103;26;20003;-46
2024/04/15 05:37:58;;;;;;;5.55;0.38;;;8.70;99.90;;;;;;5367816;26;20003;-44
2024/04/15 05:40:24;;;;;;;7.88;1.58;;;8.60;99.90;;;;;;5331838;26;20008;-46
2024/04/15 05:42:49;;;;;;;11.23;0.88;;;8.60;99.90;;;;;;5366608;26;20456;-48
2024/04/15 05:45:15;;;;;;;9.27;0.40;;;8.60;99.90;;;;;;5368144;26;20000;-43
2024/04/15 05:47:40;;;;;;;13.13;1.05;;;8.60;99.90;;;;;;5370429;26;20004;-50
2024/04/15 05:50:06;;;;;;;6.60;0.50;;;8.60;99.90;;;;;;5367867;26;20453;-44
2024/04/15 05:52:32;;;;;;;9.20;0.50;;;8.60;99.90;;;;;;5360246;26;20858;-49
2024/04/15 05:54:57;;;;;;;7.25;0.82;;;8.60;99.90;;;;;;5357022;26;20000;-40
2024/04/15 05:57:23;;;;;;;5.47;0.55;;;8.60;99.90;;;;;;5369674;26;20387;-46
2024/04/15 05:59:48;;;;;;;5.43;0.60;;;8.50;99.90;;;;;;5367257;26;20435;-45
2024/04/15 06:02:14;;;;;;;14.32;1.00;;;8.50;99.90;;;;;;5366586;26;20004;-44
2024/04/15 06:04:39;;;;;;;8.90;0.40;;;8.50;99.90;;;;;;5368789;26;20079;-48
2024/04/15 06:07:05;;;;;;;6.88;0.60;;;8.50;99.90;;;;;;5369727;26;20065;-48
2024/04/15 06:09:32;;;;;;;6.47;0.50;;;8.60;99.90;;;;;;5367156;26;20000;-49
2024/04/15 06:11:58;;;;;;;8.75;1.60;;;8.60;99.90;;;;;;5363507;26;20022;-44
2024/04/15 06:14:24;;;;;;;11.82;0.80;;;8.60;99.90;;;;;;5369633;26;19997;-50
2024/04/15 06:16:49;;;;;;;10.60;0.60;;;8.80;99.90;;;;;;5367888;26;20493;-44
2024/04/15 06:19:15;;;;;;;9.07;0.50;;;9.00;99.90;;;;;;5369995;26;20000;-46
2024/04/15 06:21:42;;;;;;;11.90;0.60;;;9.30;99.90;;;;;;5369048;26;20000;-51
2024/04/15 06:24:08;;;;;;;7.45;0.32;;;9.40;99.90;;;;;;5368683;26;20071;-45
2024/04/15 06:26:34;;;;;;;11.40;0.82;;;9.50;99.90;;;;;;5368145;26;20024;-51
2024/04/15 06:29:01;;;;;;;12.10;0.95;;;9.50;99.90;;;;;;5358199;26;19992;-45
2024/04/15 06:31:27;;;;;;;12.85;0.60;;;9.50;99.90;;;;;;5357902;26;20035;-47
2024/04/15 06:33:52;;;;;;;7.00;0.50;;;9.40;99.90;;;;;;5369169;26;20039;-47
2024/04/15 06:36:18;;;;;;;8.90;0.50;;;9.40;99.90;;;;;;5371811;26;19996;-44
2024/04/15 06:38:43;;;;;;;6.43;0.82;;;9.40;99.90;;;;;;5370809;26;20023;-42
2024/04/15 06:41:09;;;;;;;5.90;0.40;;;9.40;99.90;;;;;;5361833;26;20012;-48
2024/04/15 06:43:35;;;;;;;12.13;0.60;;;9.40;99.90;;;;;;5372524;26;20006;-51
2024/04/15 06:46:01;;;;;;;12.90;1.02;;;9.40;99.90;;;;;;5371587;26;20008;-50
2024/04/15 06:48:26;;;;;;;8.43;0.77;;;9.40;99.90;;;;;;5372213;26;20548;-50
2024/04/15 06:50:52;;;;;;;5.70;0.55;;;9.50;99.90;;;;;;5371438;26;20135;-45
2024/04/15 06:53:17;;;;;;;4.47;0.52;;;9.50;99.90;;;;;;5371533;26;20007;-51
2024/04/15 06:55:43;;;;;;;8.05;0.70;;;9.50;99.90;;;;;;5366705;26;20374;-49
2024/04/15 06:58:08;;;;;;;10.77;1.20;;;9.50;99.90;;;;;;5367713;26;20326;-48
2024/04/15 07:00:34;;;;;;;9.85;0.80;;;9.60;99.90;;;;;;5370279;26;20004;-46
2024/04/15 07:02:59;;;;;;;10.82;0.55;;;9.70;99.90;;;;;;5369767;26;20011;-48
2024/04/15 07:05:25;;;;;;;13.57;0.90;;;9.70;99.90;;;;;;5372167;26;20003;-51
2024/04/15 07:07:50;;;;;;;9.55;0.90;;;9.80;99.90;;;;;;5370870;26;20090;-45
2024/04/15 07:10:16;;;;;;;11.90;0.80;;;9.90;99.90;;;;;;5369408;26;20377;-46
2024/04/15 07:12:41;;;;;;;8.77;0.80;;;9.90;99.90;;;;;;5344681;26;20000;-48
2024/04/15 07:15:07;;;;;;;7.72;0.60;;;10.00;99.90;;;;;;5371886;26;20073;-50
2024/04/15 07:17:33;;;;;;;5.85;0.88;;;10.10;99.90;;;;;;5367460;26;20015;-47
2024/04/15 07:19:58;;;;;;;8.50;0.80;;;10.30;99.90;;;;;;5368198;26;20019;-45
2024/04/15 07:22:24;;;;;;;8.00;1.25;;;10.50;99.90;;;;;;5371579;26;20044;-46
2024/04/15 07:24:49;;;;;;;11.23;0.80;;;10.80;99.90;;;;;;5346662;26;20549;-49
2024/04/15 07:27:15;;;;;;;10.30;0.90;;;10.90;99.90;;;;;;5362676;26;20404;-48
2024/04/15 07:29:41;;;;;;;6.30;0.50;;;11.00;99.90;;;;;;5368616;26;20008;-43
2024/04/15 07:32:06;;;;;;;8.77;1.13;;;11.10;99.90;;;;;;5339213;26;20478;-44
2024/04/15 07:34:32;;;;;;;11.15;0.80;;;11.10;99.90;;;;;;5368312;26;20011;-46
2024/04/15 07:36:57;;;;;;;17.40;2.97;;;11.10;99.90;;;;;;5368463;26;19996;-47
2024/04/15 07:39:23;;;;;;;10.98;1.58;;;11.20;99.90;;;;;;5370133;26;20120;-50
2024/04/15 07:41:48;;;;;;;8.23;0.50;;;11.20;99.90;;;;;;5370679;26;20011;-47
2024/04/15 07:44:14;;;;;;;10.93;1.05;;;11.20;99.90;;;;;;5361123;26;20015;-44
2024/04/15 07:46:39;;;;;;;5.70;1.10;;;11.10;99.90;;;;;;5370975;26;20073;-44
2024/04/15 07:49:05;;;;;;;4.85;0.60;;;10.90;99.90;;;;;;5372098;26;20011;-46
2024/04/15 07:51:31;;;;;;;17.83;1.17;;;10.90;99.90;;;;;;5371104;26;20008;-48
2024/04/15 07:53:56;;;;;;;9.07;1.00;;;10.80;99.90;;;;;;5326919;26;20530;-50
2024/04/15 07:56:22;;;;;;;9.32;0.60;;;10.80;99.90;;;;;;5366782;26;20033;-49
2024/04/15 07:58:47;;;;;;;5.18;0.50;;;10.80;99.90;;;;;;5370228;26;20015;-42
2024/04/15 08:01:13;;;;;;;11.80;1.20;;;10.80;99.90;;;;;;5365729;26;20055;-47
2024/04/15 08:03:38;;;;;;;9.10;0.63;;;10.90;99.90;;;;;;5368684;26;20004;-49
2024/04/15 08:06:04;;;;;;;7.95;0.50;;;10.90;99.90;;;;;;5371424;26;20035;-47
2024/04/15 08:08:30;;;;;;;5.95;0.40;;;11.00;99.90;;;;;;5369922;26;20469;-47
2024/04/15 08:10:55;;;;;;;8.20;0.57;;;11.00;99.90;;;;;;5367470;26;20445;-45
2024/04/15 08:13:21;;;;;;;10.68;0.80;;;11.10;99.90;;;;;;5366733;26;20393;-44
2024/04/15 08:15:47;;;;;;;12.73;0.95;;;11.20;99.90;;;;;;5370396;26;19996;-42
2024/04/15 08:18:13;;;;;;;4.65;0.40;;;11.20;99.90;;;;;;5370886;26;20036;-49
2024/04/15 08:20:38;;;;;;;5.45;0.40;;;11.20;99.90;;;;;;5370404;26;20059;-48
2024/04/15 08:23:04;;;;;;;6.18;0.40;;;11.20;99.90;;;;;;5371027;26;20502;-47
2024/04/15 08:25:29;;;;;;;6.35;0.85;;;11.20;99.90;;;;;;5367600;26;20546;-50
2024/04/15 08:27:55;;;;;;;8.45;0.70;;;11.20;99.90;;;;;;5371057;26;20814;-46
2024/04/15 08:30:22;;;;;;;8.38;1.13;;;11.20;99.90;;;;;;5370880;26;20012;-45
2024/04/15 08:32:50;;;;;;;4.53;0.60;;;11.30;99.90;;;;;;5370678;26;19997;-49
2024/04/15 08:35:17;;;;;;;7.38;0.40;;;11.30;99.90;;;;;;5370906;26;20463;-48
2024/04/15 08:37:42;;;;;;;9.10;0.55;;;11.30;99.90;;;;;;5367776;26;19996;-46
2024/04/15 08:40:09;;;;;;;8.35;0.77;;;11.30;99.90;;;;;;5369858;26;20015;-47
2024/04/15 08:42:50;;;;;;;11.07;1.08;;;11.30;99.90;;;;;;5366002;26;20015;-45
2024/04/15 08:45:20;;;;;;;6.70;1.65;;;11.30;99.90;;;;;;5362639;26;20070;-50
2024/04/15 08:47:52;;;;;;;6.93;0.43;;;11.30;99.90;;;;;;5370543;26;20000;-47
2024/04/15 08:50:21;;;;;;;7.22;0.40;;;11.40;99.90;;;;;;5364779;26;20105;-46
2024/04/15 08:52:51;;;;;;;4.38;0.30;;;11.50;99.90;;;;;;5370513;26;20004;-45
2024/04/15 08:55:17;;;;;;;6.00;0.50;;;11.50;99.90;;;;;;5365158;26;20031;-50
2024/04/15 08:57:46;;;;;;;8.10;0.75;;;11.50;99.90;;;;;;5342602;26;20343;-47
2024/04/15 09:00:17;;;;;;;4.63;0.38;;;11.50;99.90;;;;;;5370609;26;20023;-47
2024/04/15 09:02:43;;;;;;;19.38;1.13;;;11.60;99.90;;;;;;5370645;26;20008;-49
2024/04/15 09:05:12;;;;;;;8.15;0.75;;;11.70;99.80;;;;;;5368551;26;20476;-48
2024/04/15 09:07:41;;;;;;;4.65;0.30;;;11.70;99.70;;;;;;5359692;26;20094;-43
2024/04/15 09:10:07;;;;;;;5.03;0.30;;;11.70;99.70;;;;;;5363805;26;20019;-42
2024/04/15 09:12:38;;;;;;;5.47;0.40;;;11.80;99.70;;;;;;5368629;26;20474;-48
2024/04/15 09:15:04;;;;;;;11.48;0.50;;;11.90;99.70;;;;;;5371552;26;20012;-44
2024/04/15 09:17:31;;;;;;;3.97;0.40;;;12.00;99.90;;;;;;5370878;26;20000;-47
2024/04/15 09:19:57;;;;;;;6.10;0.80;;;12.20;99.80;;;;;;5370167;26;20010;-47
2024/04/15 09:22:30;;;;;;;3.97;0.28;;;12.30;99.20;;;;;;5369260;26;20013;-43
2024/04/15 09:24:55;;;;;;;2.42;0.30;;;12.40;98.60;;;;;;5364912;26;20007;-43
2024/04/15 09:27:24;;;;;;;11.15;0.40;;;12.50;98.50;;;;;;5370371;26;20001;-45
2024/04/15 09:29:50;;;;;;;6.97;0.30;;;12.50;98.30;;;;;;5369643;26;20000;-48
2024/04/15 09:32:16;;;;;;;6.30;1.48;;;12.60;98.10;;;;;;5367545;26;19996;-45
2024/04/15 09:34:41;;;;;;;5.45;0.20;;;12.50;97.70;;;;;;5357293;26;20073;-49
2024/04/15 09:37:08;;;;;;;6.22;0.47;;;12.40;97.30;;;;;;5361330;26;20004;-43
2024/04/15 09:39:36;;;;;;;7.22;0.28;;;12.40;97.70;;;;;;5360215;26;20009;-47
2024/04/15 09:42:02;;;;;;;6.97;0.30;;;12.30;97.60;;;;;;5370358;26;20064;-47
2024/04/15 09:44:29;;;;;;;5.95;0.30;;;12.30;97.70;;;;;;5369242;26;20007;-50
2024/04/15 09:46:55;;;;;;;6.47;0.47;;;12.20;97.50;;;;;;5360355;26;20669;-49
2024/04/15 09:49:21;;;;;;;6.03;0.45;;;12.10;97.80;;;;;;5359264;26;20004;-48
2024/04/15 09:51:50;;;;;;;3.65;0.30;;;12.10;97.90;;;;;;5364243;26;20000;-48
2024/04/15 09:54:22;;;;;;;5.47;0.30;;;12.20;98.00;;;;;;5359021;26;20008;-47
2024/04/15 09:56:49;;;;;;;5.07;0.50;;;12.20;97.60;;;;;;5367016;26;20462;-47
2024/04/15 09:59:15;;;;;;;3.17;0.40;;;12.30;97.90;;;;;;5360050;26;20459;-47
2024/04/15 10:01:44;;;;;;;5.63;0.30;;;12.30;97.60;;;;;;5368442;26;20470;-50
2024/04/15 10:04:23;;;;;;;2.00;0.40;;;12.20;97.60;;;;;;5366105;26;20061;-50
2024/04/15 10:06:53;;;;;;;3.88;0.20;;;12.20;97.30;;;;;;5365557;26;20038;-47
2024/04/15 10:09:19;;;;;;;6.38;1.27;;;12.10;97.50;;;;;;5367894;26;20019;-44
2024/04/15 10:11:49;;;;;;;6.32;0.30;;;12.10;97.50;;;;;;5371099;26;20004;-49
2024/04/15 10:14:16;;;;;;;4.97;0.47;;;12.10;97.50;;;;;;5368442;26;19996;-47
2024/04/15 10:16:49;;;;;;;18.02;1.35;;;12.10;96.90;;;;;;5364727;26;20462;-47
2024/04/15 10:19:25;;;;;;;8.00;1.60;;;12.10;96.80;;;;;;5367193;26;19997;-50
2024/04/15 10:21:50;;;;;;;7.65;0.30;;;12.20;97.10;;;;;;5361191;26;20012;-47
2024/04/15 10:24:16;;;;;;;2.92;0.20;;;12.20;97.20;;;;;;5371659;26;20337;-45
2024/04/15 10:26:42;;;;;;;6.72;0.20;;;12.30;97.30;;;;;;5371760;26;20331;-41
2024/04/15 10:29:19;;;;;;;5.30;0.50;;;12.40;97.10;;;;;;5373015;26;20004;-48
2024/04/15 10:31:55;;;;;;;1.77;0.20;;;12.40;96.80;;;;;;5364232;26;20008;-50
2024/04/15 10:34:25;;;;;;;11.63;0.57;;;12.40;96.50;;;;;;5369691;26;20011;-48
2024/04/15 10:36:53;;;;;;;5.60;0.30;;;12.40;96.70;;;;;;5370064;26;20060;-37
2024/04/15 10:39:19;;;;;;;5.07;0.20;;;12.40;96.90;;;;;;5365544;26;20339;-37
2024/04/15 10:41:46;;;;;;;3.60;0.30;;;12.30;96.80;;;;;;5361561;26;20008;-36
2024/04/15 10:44:12;;;;;;;4.20;0.20;;;12.30;96.90;;;;;;5373119;26;19996;-37
2024/04/15 10:46:41;;;;;;;5.57;0.10;;;12.30;96.90;;;;;;5372520;26;20379;-38
2024/04/15 10:49:07;;;;;;;3.88;0.40;;;12.40;97.10;;;;;;5368928;26;20082;-43
2024/04/15 10:51:33;;;;;;;6.45;1.00;;;12.40;97.00;;;;;;5367209;26;20375;-37
2024/04/15 10:53:59;;;;;;;5.38;0.30;;;12.30;97.30;;;;;;5368143;26;20015;-36
2024/04/15 10:56:25;;;;;;;6.13;0.20;;;12.40;97.00;;;;;;5347873;26;20005;-37
2024/04/15 10:58:50;;;;;;;2.25;0.20;;;12.40;97.30;;;;;;5369580;26;20070;-36
2024/04/15 11:01:16;;;;;;;4.22;0.20;;;12.40;97.10;;;;;;5371032;26;20000;-37
2024/04/15 11:03:43;;;;;;;2.60;0.20;;;12.50;96.90;;;;;;5369839;26;19996;-37
2024/04/15 11:06:09;;;;;;;3.10;0.20;;;12.40;97.30;;;;;;5371329;26;19992;-39
2024/04/15 11:08:36;;;;;;;4.30;0.95;;;12.30;98.10;;;;;;5372240;26;19997;-38
2024/04/15 11:11:01;;;;;;;4.18;0.20;;;12.20;98.70;;;;;;5370755;26;19996;-38
2024/04/15 11:13:27;;;;;;;6.57;0.28;;;12.10;99.20;;;;;;5379648;26;20011;-38
2024/04/15 11:15:54;;;;;;;5.45;0.30;;;12.00;99.60;;;;;;5370933;26;20010;-39
2024/04/15 11:18:20;;;;;;;3.58;0.20;;;11.90;99.90;;;;;;5372196;26;20402;-42
2024/04/15 11:20:46;;;;;;;4.43;1.20;;;11.80;99.90;;;;;;5370263;26;20019;-37
2024/04/15 11:23:12;;;;;;;4.22;0.20;;;11.70;99.90;;;;;;5372706;26;20458;-39
2024/04/15 11:25:38;;;;;;;6.30;0.20;;;11.60;99.90;;;;;;5370627;26;20011;-39
2024/04/15 11:28:04;;;;;;;5.05;0.47;;;11.60;99.90;;;;;;5372860;26;20428;-38
2024/04/15 11:30:30;;;;;;;3.45;0.22;;;11.60;99.90;;;;;;5366224;26;20015;-37
2024/04/15 11:32:58;;;;;;;3.28;0.20;;;11.70;99.90;;;;;;5350055;26;20004;-37
2024/04/15 11:35:23;;;;;;;8.45;0.63;;;11.70;99.90;;;;;;5370103;26;20024;-37
2024/04/15 11:38:07;;;;;;;4.53;0.20;;;11.60;99.90;;;;;;5372201;26;20008;-37
2024/04/15 11:40:33;;;;;;;2.85;0.20;;;11.60;99.90;;;;;;5371585;26;20000;-37
2024/04/15 11:42:58;;;;;;;3.35;0.35;;;11.60;99.90;;;;;;5370608;26;20469;-37
2024/04/15 11:45:24;;;;;;;8.48;0.45;;;11.60;99.90;;;;;;5372085;26;20004;-38
2024/04/15 11:47:57;;;;;;;3.15;0.30;;;11.50;99.90;;;;;;5364880;26;20417;-36
2024/04/15 11:50:23;;;;;;;1.63;0.20;;;11.50;99.90;;;;;;5372034;26;20036;-37
2024/04/15 11:52:48;;;;;;;2.30;0.20;;;11.40;99.90;;;;;;5368445;26;20367;-37
2024/04/15 11:55:16;;;;;;;1.85;0.22;;;11.40;99.90;;;;;;5370434;26;20015;-39
2024/04/15 11:57:42;;;;;;;3.55;0.30;;;11.30;99.90;;;;;;5363346;26;20659;-38
2024/04/15 12:00:09;;;;;;;6.13;0.57;;;11.40;99.90;;;;;;5366782;26;20001;-37
2024/04/15 12:02:41;;;;;;;3.88;0.88;;;11.40;99.90;;;;;;5364819;26;20004;-38
2024/04/15 12:05:08;;;;;;;5.25;0.30;;;11.40;99.90;;;;;;5365807;26;20004;-38
2024/04/15 12:07:34;;;;;;;3.92;0.45;;;11.40;99.90;;;;;;5365675;26;20033;-38
2024/04/15 12:10:01;;;;;;;7.43;0.88;;;11.30;99.90;;;;;;5360945;26;20000;-37
2024/04/15 12:12:26;;;;;;;3.50;0.80;;;11.40;99.90;;;;;;5357673;26;20279;-39
2024/04/15 12:14:52;;;;;;;5.78;0.30;;;11.40;99.90;;;;;;5370223;26;20454;-37
2024/04/15 12:17:18;;;;;;;6.70;0.50;;;11.50;99.90;;;;;;5370110;26;20475;-37
2024/04/15 12:19:43;;;;;;;5.47;0.40;;;11.40;99.90;;;;;;5336440;26;19996;-40
2024/04/15 12:22:09;;;;;;;4.15;0.70;;;11.40;99.90;;;;;;5365842;26;19996;-40
2024/04/15 12:24:34;;;;;;;2.67;0.40;;;11.40;99.90;;;;;;5354804;26;20081;-37
2024/04/15 12:27:00;;;;;;;1.80;0.30;;;11.30;99.90;;;;;;5368348;26;20388;-36
2024/04/15 12:29:25;;;;;;;7.32;0.70;;;11.30;99.90;;;;;;5360731;26;20012;-39
2024/04/15 12:31:51;;;;;;;5.13;0.30;;;11.20;99.90;;;;;;5361539;26;20452;-36
2024/04/15 12:34:17;;;;;;;6.40;1.58;;;11.20;99.90;;;;;;5366366;26;20012;-37
2024/04/15 12:36:43;;;;;;;6.53;0.82;;;11.10;99.90;;;;;;5362661;26;20555;-36
2024/04/15 12:39:09;;;;;;;3.47;0.40;;;11.10;99.90;;;;;;5358144;26;20033;-37
2024/04/15 12:41:35;;;;;;;4.88;0.60;;;11.10;99.90;;;;;;5367785;26;19996;-39
2024/04/15 12:44:02;;;;;;;3.70;0.70;;;11.00;99.90;;;;;;5367361;26;19998;-40
2024/04/15 12:46:29;;;;;;;6.88;0.50;;;11.00;99.90;;;;;;5370098;26;20008;-46